Terminal Aerodrome Forecast
Issued by NWS

Home | Current Version | Previous Version | Text Only | Print | Product List | Glossary Off
Versions: 1 2 3 4 5 6 7 8 9 10 11 12 13 14 15 16 17

000
FTUS43 KMPX 242324
TAFRNH
TAF
KRNH 242324Z 2500/2524 15009KT P6SM BKN150
     FM250300 14007KT 5SM -SN BR OVC025
     FM250400 15005KT 2SM -SN BR OVC009
     FM250800 16005KT 3SM -SN BR OVC010
     FM251400 26014G22KT P6SM BKN025=

USA.gov is the U.S. government's official web portal to all federal, state and local government web resources and services.